Goiana, Brazil
Current Conditions -  °F | °C
As of 1:00 PM on Saturday 22 Nov 2014 (Local Time) from SBJP Reporting Station
Scattered Clouds Scattered Clouds  
Wind Chill: 84°   Ceiling: Unl
Heat Index: 86°   Visibility: 6mi
Dew Point: 66°   Wind: 14mph
Humidity: 55%   Direction: 100°E
Pressure: 29.91"   Gusts: NA
Location:  7.56°S, 35°W
Report Text: SBJP 221600Z 10012KT 9999 SCT030 29/19 Q1013
Loading
Personal Weather Stations






























Interactive Weather Map New forecast layout! Learn more

10-Day Weather Forecast

Advertisements
Track Severe Weather on mobile